sensor_id;sensor_type;location;lat;lon;timestamp;temperature;humidity
44215;DHT22;29884;47.450;19.124;2023-09-18T00:01:50;18.70;99.90
44215;DHT22;29884;47.450;19.124;2023-09-18T00:04:16;18.70;99.90
44215;DHT22;29884;47.450;19.124;2023-09-18T00:06:42;18.60;99.90
44215;DHT22;29884;47.450;19.124;2023-09-18T00:09:07;18.60;99.90
44215;DHT22;29884;47.450;19.124;2023-09-18T00:11:37;18.60;99.90
44215;DHT22;29884;47.450;19.124;2023-09-18T00:14:04;18.60;99.90
44215;DHT22;29884;47.450;19.124;2023-09-18T00:16:30;18.50;99.90
44215;DHT22;29884;47.450;19.124;2023-09-18T00:18:56;18.40;99.90
44215;DHT22;29884;47.450;19.124;2023-09-18T00:21:21;18.40;99.90
44215;DHT22;29884;47.450;19.124;2023-09-18T00:23:47;18.40;99.90
44215;DHT22;29884;47.450;19.124;2023-09-18T00:26:13;18.40;99.90
44215;DHT22;29884;47.450;19.124;2023-09-18T00:28:38;18.40;99.90
44215;DHT22;29884;47.450;19.124;2023-09-18T00:31:04;18.40;99.90
44215;DHT22;29884;47.450;19.124;2023-09-18T00:33:31;18.30;99.90
44215;DHT22;29884;47.450;19.124;2023-09-18T00:35:56;18.20;99.90
44215;DHT22;29884;47.450;19.124;2023-09-18T00:38:22;18.30;99.90
44215;DHT22;29884;47.450;19.124;2023-09-18T00:40:48;18.30;99.90
44215;DHT22;29884;47.450;19.124;2023-09-18T00:43:13;18.20;99.90
44215;DHT22;29884;47.450;19.124;2023-09-18T00:45:44;18.20;99.90
44215;DHT22;29884;47.450;19.124;2023-09-18T00:48:12;18.20;99.90
44215;DHT22;29884;47.450;19.124;2023-09-18T00:50:37;18.20;99.90
44215;DHT22;29884;47.450;19.124;2023-09-18T00:53:04;18.10;99.90
44215;DHT22;29884;47.450;19.124;2023-09-18T00:55:31;18.10;99.90
44215;DHT22;29884;47.450;19.124;2023-09-18T00:57:57;18.10;99.90
44215;DHT22;29884;47.450;19.124;2023-09-18T01:00:23;18.10;99.90
44215;DHT22;29884;47.450;19.124;2023-09-18T01:02:49;18.10;99.90
44215;DHT22;29884;47.450;19.124;2023-09-18T01:05:15;18.10;99.90
44215;DHT22;29884;47.450;19.124;2023-09-18T01:07:45;18.10;99.90
44215;DHT22;29884;47.450;19.124;2023-09-18T01:10:12;18.10;99.90
44215;DHT22;29884;47.450;19.124;2023-09-18T01:12:51;18.00;99.90
44215;DHT22;29884;47.450;19.124;2023-09-18T01:15:35;18.00;99.90
44215;DHT22;29884;47.450;19.124;2023-09-18T01:18:02;18.10;99.90
44215;DHT22;29884;47.450;19.124;2023-09-18T01:20:28;18.00;99.90
44215;DHT22;29884;47.450;19.124;2023-09-18T01:22:54;18.00;99.90
44215;DHT22;29884;47.450;19.124;2023-09-18T01:25:20;17.90;99.90
44215;DHT22;29884;47.450;19.124;2023-09-18T01:27:46;17.90;99.90
44215;DHT22;29884;47.450;19.124;2023-09-18T01:30:11;17.90;99.90
44215;DHT22;29884;47.450;19.124;2023-09-18T01:32:39;17.90;99.90
44215;DHT22;29884;47.450;19.124;2023-09-18T01:35:06;17.80;99.90
44215;DHT22;29884;47.450;19.124;2023-09-18T01:37:33;17.80;99.90
44215;DHT22;29884;47.450;19.124;2023-09-18T01:40:02;17.80;99.90
44215;DHT22;29884;47.450;19.124;2023-09-18T01:42:32;17.80;99.90
44215;DHT22;29884;47.450;19.124;2023-09-18T01:44:58;17.80;99.90
44215;DHT22;29884;47.450;19.124;2023-09-18T01:47:23;17.80;99.90
44215;DHT22;29884;47.450;19.124;2023-09-18T01:49:49;17.80;99.90
44215;DHT22;29884;47.450;19.124;2023-09-18T01:52:15;17.80;99.90
44215;DHT22;29884;47.450;19.124;2023-09-18T01:54:41;17.80;99.90
44215;DHT22;29884;47.450;19.124;2023-09-18T01:57:07;17.70;99.90
44215;DHT22;29884;47.450;19.124;2023-09-18T01:59:35;17.80;99.90
44215;DHT22;29884;47.450;19.124;2023-09-18T02:02:01;17.80;99.90
44215;DHT22;29884;47.450;19.124;2023-09-18T02:04:32;17.80;99.90
44215;DHT22;29884;47.450;19.124;2023-09-18T02:06:58;17.80;99.90
44215;DHT22;29884;47.450;19.124;2023-09-18T02:09:23;17.80;99.90
44215;DHT22;29884;47.450;19.124;2023-09-18T02:11:49;17.90;99.90
44215;DHT22;29884;47.450;19.124;2023-09-18T02:14:15;17.90;99.90
44215;DHT22;29884;47.450;19.124;2023-09-18T02:16:42;17.90;99.90
44215;DHT22;29884;47.450;19.124;2023-09-18T02:19:09;17.90;99.90
44215;DHT22;29884;47.450;19.124;2023-09-18T02:21:35;17.90;99.90
44215;DHT22;29884;47.450;19.124;2023-09-18T02:24:01;17.90;99.90
44215;DHT22;29884;47.450;19.124;2023-09-18T02:26:27;17.90;99.90
44215;DHT22;29884;47.450;19.124;2023-09-18T02:28:54;17.90;99.90
44215;DHT22;29884;47.450;19.124;2023-09-18T02:31:21;17.80;99.90
44215;DHT22;29884;47.450;19.124;2023-09-18T02:33:47;17.80;99.90
44215;DHT22;29884;47.450;19.124;2023-09-18T02:36:13;17.80;99.90
44215;DHT22;29884;47.450;19.124;2023-09-18T02:38:39;17.80;99.90
44215;DHT22;29884;47.450;19.124;2023-09-18T02:41:05;17.90;99.90
44215;DHT22;29884;47.450;19.124;2023-09-18T02:43:30;17.90;99.90
44215;DHT22;29884;47.450;19.124;2023-09-18T02:45:56;18.00;99.90
44215;DHT22;29884;47.450;19.124;2023-09-18T02:48:22;18.00;99.90
44215;DHT22;29884;47.450;19.124;2023-09-18T02:50:47;18.00;99.90
44215;DHT22;29884;47.450;19.124;2023-09-18T02:53:21;18.00;99.90
44215;DHT22;29884;47.450;19.124;2023-09-18T02:55:51;18.10;99.90
44215;DHT22;29884;47.450;19.124;2023-09-18T02:58:17;18.10;99.90
44215;DHT22;29884;47.450;19.124;2023-09-18T03:00:46;18.10;99.90
44215;DHT22;29884;47.450;19.124;2023-09-18T03:03:12;18.10;99.90
44215;DHT22;29884;47.450;19.124;2023-09-18T03:05:38;18.10;99.90
44215;DHT22;29884;47.450;19.124;2023-09-18T03:08:04;18.00;99.90
44215;DHT22;29884;47.450;19.124;2023-09-18T03:10:38;18.10;99.90
44215;DHT22;29884;47.450;19.124;2023-09-18T03:13:09;18.10;99.90
44215;DHT22;29884;47.450;19.124;2023-09-18T03:15:36;18.00;99.90
44215;DHT22;29884;47.450;19.124;2023-09-18T03:18:03;18.00;99.90
44215;DHT22;29884;47.450;19.124;2023-09-18T03:20:30;18.00;99.90
44215;DHT22;29884;47.450;19.124;2023-09-18T03:22:57;18.00;99.90
44215;DHT22;29884;47.450;19.124;2023-09-18T03:25:23;18.10;99.90
44215;DHT22;29884;47.450;19.124;2023-09-18T03:27:53;18.00;99.90
44215;DHT22;29884;47.450;19.124;2023-09-18T03:30:20;18.00;99.90
44215;DHT22;29884;47.450;19.124;2023-09-18T03:32:47;18.00;99.90
44215;DHT22;29884;47.450;19.124;2023-09-18T03:35:14;18.10;99.90
44215;DHT22;29884;47.450;19.124;2023-09-18T03:37:52;18.10;99.90
44215;DHT22;29884;47.450;19.124;2023-09-18T03:40:20;18.10;99.90
44215;DHT22;29884;47.450;19.124;2023-09-18T03:42:46;18.10;99.90
44215;DHT22;29884;47.450;19.124;2023-09-18T03:45:12;18.00;99.90
44215;DHT22;29884;47.450;19.124;2023-09-18T03:47:39;18.00;99.90
44215;DHT22;29884;47.450;19.124;2023-09-18T03:50:06;18.00;99.90
44215;DHT22;29884;47.450;19.124;2023-09-18T03:52:32;18.00;99.90
44215;DHT22;29884;47.450;19.124;2023-09-18T03:54:58;18.00;99.90
44215;DHT22;29884;47.450;19.124;2023-09-18T03:57:24;18.10;99.90
44215;DHT22;29884;47.450;19.124;2023-09-18T03:59:50;17.90;99.90
44215;DHT22;29884;47.450;19.124;2023-09-18T04:02:15;17.90;99.90
44215;DHT22;29884;47.450;19.124;2023-09-18T04:04:41;17.90;99.90
44215;DHT22;29884;47.450;19.124;2023-09-18T04:07:08;17.90;99.90
44215;DHT22;29884;47.450;19.124;2023-09-18T04:09:34;17.90;99.90
44215;DHT22;29884;47.450;19.124;2023-09-18T04:12:03;17.90;99.90
44215;DHT22;29884;47.450;19.124;2023-09-18T04:14:33;17.90;99.90
44215;DHT22;29884;47.450;19.124;2023-09-18T04:16:58;17.90;99.90
44215;DHT22;29884;47.450;19.124;2023-09-18T04:19:26;17.80;99.90
44215;DHT22;29884;47.450;19.124;2023-09-18T04:21:52;17.80;99.90
44215;DHT22;29884;47.450;19.124;2023-09-18T04:24:17;17.80;99.90
44215;DHT22;29884;47.450;19.124;2023-09-18T04:26:43;17.70;99.90
44215;DHT22;29884;47.450;19.124;2023-09-18T04:29:09;17.70;99.90
44215;DHT22;29884;47.450;19.124;2023-09-18T04:31:34;17.70;99.90
44215;DHT22;29884;47.450;19.124;2023-09-18T04:34:00;17.70;99.90
44215;DHT22;29884;47.450;19.124;2023-09-18T04:36:27;17.80;99.90
44215;DHT22;29884;47.450;19.124;2023-09-18T04:38:53;18.00;99.90
44215;DHT22;29884;47.450;19.124;2023-09-18T04:41:19;17.90;99.90
44215;DHT22;29884;47.450;19.124;2023-09-18T04:43:45;17.90;99.90
44215;DHT22;29884;47.450;19.124;2023-09-18T04:46:11;17.90;99.90
44215;DHT22;29884;47.450;19.124;2023-09-18T04:48:37;17.90;99.90
44215;DHT22;29884;47.450;19.124;2023-09-18T04:51:03;17.90;99.90
44215;DHT22;29884;47.450;19.124;2023-09-18T04:53:32;17.80;99.90
44215;DHT22;29884;47.450;19.124;2023-09-18T04:55:59;17.80;99.90
44215;DHT22;29884;47.450;19.124;2023-09-18T04:58:26;17.80;99.90
44215;DHT22;29884;47.450;19.124;2023-09-18T05:00:55;17.90;99.90
44215;DHT22;29884;47.450;19.124;2023-09-18T05:03:21;17.90;99.90
44215;DHT22;29884;47.450;19.124;2023-09-18T05:05:47;17.90;99.90
44215;DHT22;29884;47.450;19.124;2023-09-18T05:08:12;17.90;99.90
44215;DHT22;29884;47.450;19.124;2023-09-18T05:11:04;17.90;99.90
44215;DHT22;29884;47.450;19.124;2023-09-18T05:13:33;17.90;99.90
44215;DHT22;29884;47.450;19.124;2023-09-18T05:15:59;17.90;99.90
44215;DHT22;29884;47.450;19.124;2023-09-18T05:18:26;17.90;99.90
44215;DHT22;29884;47.450;19.124;2023-09-18T05:20:52;18.00;99.90
44215;DHT22;29884;47.450;19.124;2023-09-18T05:23:17;18.00;99.90
44215;DHT22;29884;47.450;19.124;2023-09-18T05:25:44;18.00;99.90
44215;DHT22;29884;47.450;19.124;2023-09-18T05:28:10;18.10;99.90
44215;DHT22;29884;47.450;19.124;2023-09-18T05:30:36;18.10;99.90
44215;DHT22;29884;47.450;19.124;2023-09-18T05:33:05;18.10;99.90
44215;DHT22;29884;47.450;19.124;2023-09-18T05:35:35;18.20;99.90
44215;DHT22;29884;47.450;19.124;2023-09-18T05:38:05;18.20;99.90
44215;DHT22;29884;47.450;19.124;2023-09-18T05:40:31;18.30;99.90
44215;DHT22;29884;47.450;19.124;2023-09-18T05:42:57;18.30;99.90
44215;DHT22;29884;47.450;19.124;2023-09-18T05:45:23;18.30;99.90
44215;DHT22;29884;47.450;19.124;2023-09-18T05:47:49;18.30;99.90
44215;DHT22;29884;47.450;19.124;2023-09-18T05:50:16;18.30;99.90
44215;DHT22;29884;47.450;19.124;2023-09-18T05:52:46;18.40;99.90
44215;DHT22;29884;47.450;19.124;2023-09-18T05:55:14;18.40;99.90
44215;DHT22;29884;47.450;19.124;2023-09-18T05:57:40;18.50;99.90
44215;DHT22;29884;47.450;19.124;2023-09-18T06:00:06;18.60;99.90
44215;DHT22;29884;47.450;19.124;2023-09-18T06:02:32;18.60;99.90
44215;DHT22;29884;47.450;19.124;2023-09-18T06:04:59;18.60;99.90
44215;DHT22;29884;47.450;19.124;2023-09-18T06:07:28;18.60;99.90
44215;DHT22;29884;47.450;19.124;2023-09-18T06:09:56;18.70;99.90
44215;DHT22;29884;47.450;19.124;2023-09-18T06:12:22;18.80;99.90
44215;DHT22;29884;47.450;19.124;2023-09-18T06:14:49;18.70;99.90
44215;DHT22;29884;47.450;19.124;2023-09-18T06:17:15;18.70;99.90
44215;DHT22;29884;47.450;19.124;2023-09-18T06:19:42;18.70;99.90
44215;DHT22;29884;47.450;19.124;2023-09-18T06:22:08;18.90;99.90
44215;DHT22;29884;47.450;19.124;2023-09-18T06:24:34;19.00;99.90
44215;DHT22;29884;47.450;19.124;2023-09-18T06:27:00;19.10;99.90
44215;DHT22;29884;47.450;19.124;2023-09-18T06:29:25;19.20;99.90
44215;DHT22;29884;47.450;19.124;2023-09-18T06:31:51;19.30;99.90
44215;DHT22;29884;47.450;19.124;2023-09-18T06:34:17;19.20;99.90
44215;DHT22;29884;47.450;19.124;2023-09-18T06:36:43;19.30;99.90
44215;DHT22;29884;47.450;19.124;2023-09-18T06:39:08;19.50;99.90
44215;DHT22;29884;47.450;19.124;2023-09-18T06:41:34;19.40;99.90
44215;DHT22;29884;47.450;19.124;2023-09-18T06:44:00;19.50;99.90
44215;DHT22;29884;47.450;19.124;2023-09-18T06:46:29;19.60;99.90
44215;DHT22;29884;47.450;19.124;2023-09-18T06:48:56;19.70;99.90
44215;DHT22;29884;47.450;19.124;2023-09-18T06:51:22;19.80;99.90
44215;DHT22;29884;47.450;19.124;2023-09-18T06:53:48;19.90;99.90
44215;DHT22;29884;47.450;19.124;2023-09-18T06:56:14;20.10;99.90
44215;DHT22;29884;47.450;19.124;2023-09-18T06:58:40;20.40;99.90
44215;DHT22;29884;47.450;19.124;2023-09-18T07:01:05;20.60;99.90
44215;DHT22;29884;47.450;19.124;2023-09-18T07:03:35;20.70;99.90
44215;DHT22;29884;47.450;19.124;2023-09-18T07:06:02;20.90;99.90
44215;DHT22;29884;47.450;19.124;2023-09-18T07:08:29;21.00;99.90
44215;DHT22;29884;47.450;19.124;2023-09-18T07:10:56;21.00;99.90
44215;DHT22;29884;47.450;19.124;2023-09-18T07:13:22;20.90;99.90
44215;DHT22;29884;47.450;19.124;2023-09-18T07:15:48;21.10;99.90
44215;DHT22;29884;47.450;19.124;2023-09-18T07:18:14;20.90;99.90
44215;DHT22;29884;47.450;19.124;2023-09-18T07:20:44;21.00;99.90
44215;DHT22;29884;47.450;19.124;2023-09-18T07:23:10;21.20;99.90
44215;DHT22;29884;47.450;19.124;2023-09-18T07:25:36;21.30;99.90
44215;DHT22;29884;47.450;19.124;2023-09-18T07:28:07;21.50;99.90
44215;DHT22;29884;47.450;19.124;2023-09-18T07:30:34;21.50;99.90
44215;DHT22;29884;47.450;19.124;2023-09-18T07:33:01;21.60;99.90
44215;DHT22;29884;47.450;19.124;2023-09-18T07:35:27;21.80;99.90
44215;DHT22;29884;47.450;19.124;2023-09-18T07:37:53;21.80;99.90
44215;DHT22;29884;47.450;19.124;2023-09-18T07:40:19;21.80;99.90
44215;DHT22;29884;47.450;19.124;2023-09-18T07:42:45;22.10;99.90
44215;DHT22;29884;47.450;19.124;2023-09-18T07:45:11;22.40;99.90
44215;DHT22;29884;47.450;19.124;2023-09-18T07:47:37;22.60;99.90
44215;DHT22;29884;47.450;19.124;2023-09-18T07:50:03;22.80;99.90
44215;DHT22;29884;47.450;19.124;2023-09-18T07:52:29;22.80;99.90
44215;DHT22;29884;47.450;19.124;2023-09-18T07:54:55;22.90;99.90
44215;DHT22;29884;47.450;19.124;2023-09-18T07:57:21;22.70;99.90
44215;DHT22;29884;47.450;19.124;2023-09-18T07:59:49;22.90;99.90
44215;DHT22;29884;47.450;19.124;2023-09-18T08:02:14;23.00;99.90
44215;DHT22;29884;47.450;19.124;2023-09-18T08:04:41;22.90;99.90
44215;DHT22;29884;47.450;19.124;2023-09-18T08:07:08;23.10;99.90
44215;DHT22;29884;47.450;19.124;2023-09-18T08:09:34;23.20;99.90
44215;DHT22;29884;47.450;19.124;2023-09-18T08:12:06;23.30;99.90
44215;DHT22;29884;47.450;19.124;2023-09-18T08:14:32;23.40;99.90
44215;DHT22;29884;47.450;19.124;2023-09-18T08:17:01;23.50;99.90
44215;DHT22;29884;47.450;19.124;2023-09-18T08:19:28;23.50;99.90
44215;DHT22;29884;47.450;19.124;2023-09-18T08:21:54;23.70;99.90
44215;DHT22;29884;47.450;19.124;2023-09-18T08:24:21;23.70;99.90
44215;DHT22;29884;47.450;19.124;2023-09-18T08:26:47;23.70;99.90
44215;DHT22;29884;47.450;19.124;2023-09-18T08:29:13;23.80;99.90
44215;DHT22;29884;47.450;19.124;2023-09-18T08:31:39;23.90;99.90
44215;DHT22;29884;47.450;19.124;2023-09-18T08:34:04;23.90;99.90
44215;DHT22;29884;47.450;19.124;2023-09-18T08:36:30;24.30;99.90
44215;DHT22;29884;47.450;19.124;2023-09-18T08:38:57;24.40;99.90
44215;DHT22;29884;47.450;19.124;2023-09-18T08:41:24;24.40;99.90
44215;DHT22;29884;47.450;19.124;2023-09-18T08:43:56;24.60;99.90
44215;DHT22;29884;47.450;19.124;2023-09-18T08:46:25;24.80;99.90
44215;DHT22;29884;47.450;19.124;2023-09-18T08:48:51;24.70;99.90
44215;DHT22;29884;47.450;19.124;2023-09-18T08:51:18;24.80;99.90
44215;DHT22;29884;47.450;19.124;2023-09-18T08:53:46;24.70;99.90
44215;DHT22;29884;47.450;19.124;2023-09-18T08:56:13;24.50;99.90
44215;DHT22;29884;47.450;19.124;2023-09-18T08:58:40;24.80;99.90
44215;DHT22;29884;47.450;19.124;2023-09-18T09:01:11;25.00;99.90
44215;DHT22;29884;47.450;19.124;2023-09-18T09:03:40;25.10;99.90
44215;DHT22;29884;47.450;19.124;2023-09-18T09:06:11;25.10;99.90
44215;DHT22;29884;47.450;19.124;2023-09-18T09:08:37;25.40;99.90
44215;DHT22;29884;47.450;19.124;2023-09-18T09:11:04;25.60;99.90
44215;DHT22;29884;47.450;19.124;2023-09-18T09:13:29;25.50;99.90
44215;DHT22;29884;47.450;19.124;2023-09-18T09:15:57;25.60;99.90
44215;DHT22;29884;47.450;19.124;2023-09-18T09:18:28;25.70;99.90
44215;DHT22;29884;47.450;19.124;2023-09-18T09:20:58;25.70;99.90
44215;DHT22;29884;47.450;19.124;2023-09-18T09:23:49;25.90;99.90
44215;DHT22;29884;47.450;19.124;2023-09-18T09:26:19;25.80;99.90
44215;DHT22;29884;47.450;19.124;2023-09-18T09:28:46;26.00;99.90
44215;DHT22;29884;47.450;19.124;2023-09-18T09:31:22;25.90;99.90
44215;DHT22;29884;47.450;19.124;2023-09-18T09:33:52;25.70;99.90
44215;DHT22;29884;47.450;19.124;2023-09-18T09:36:30;25.90;99.90
44215;DHT22;29884;47.450;19.124;2023-09-18T09:38:58;26.10;99.90
44215;DHT22;29884;47.450;19.124;2023-09-18T09:41:24;26.40;99.90
44215;DHT22;29884;47.450;19.124;2023-09-18T09:43:51;26.50;99.90
44215;DHT22;29884;47.450;19.124;2023-09-18T09:46:17;26.40;99.90
44215;DHT22;29884;47.450;19.124;2023-09-18T09:49:06;26.50;99.90
44215;DHT22;29884;47.450;19.124;2023-09-18T09:51:32;26.80;99.90
44215;DHT22;29884;47.450;19.124;2023-09-18T09:53:59;26.90;99.90
44215;DHT22;29884;47.450;19.124;2023-09-18T09:56:49;27.00;99.90
44215;DHT22;29884;47.450;19.124;2023-09-18T09:59:17;26.60;99.90
44215;DHT22;29884;47.450;19.124;2023-09-18T10:01:47;26.60;99.90
44215;DHT22;29884;47.450;19.124;2023-09-18T10:04:15;26.60;99.90
44215;DHT22;29884;47.450;19.124;2023-09-18T10:06:51;26.80;99.90
44215;DHT22;29884;47.450;19.124;2023-09-18T10:09:20;26.60;99.90
44215;DHT22;29884;47.450;19.124;2023-09-18T10:11:51;26.60;99.90
44215;DHT22;29884;47.450;19.124;2023-09-18T10:14:23;26.60;99.90
44215;DHT22;29884;47.450;19.124;2023-09-18T10:16:56;26.60;99.90
44215;DHT22;29884;47.450;19.124;2023-09-18T10:20:22;26.90;99.90
44215;DHT22;29884;47.450;19.124;2023-09-18T10:22:30;27.30;99.90
44215;DHT22;29884;47.450;19.124;2023-09-18T10:25:17;27.00;99.90
44215;DHT22;29884;47.450;19.124;2023-09-18T10:27:47;27.10;99.90
44215;DHT22;29884;47.450;19.124;2023-09-18T10:30:20;27.10;99.90
44215;DHT22;29884;47.450;19.124;2023-09-18T10:32:48;27.20;99.90
44215;DHT22;29884;47.450;19.124;2023-09-18T10:35:15;27.30;99.90
44215;DHT22;29884;47.450;19.124;2023-09-18T10:37:45;27.20;99.90
44215;DHT22;29884;47.450;19.124;2023-09-18T10:40:12;27.30;99.90
44215;DHT22;29884;47.450;19.124;2023-09-18T10:42:41;27.30;99.90
44215;DHT22;29884;47.450;19.124;2023-09-18T10:45:10;27.40;99.90
44215;DHT22;29884;47.450;19.124;2023-09-18T10:47:40;27.50;99.90
44215;DHT22;29884;47.450;19.124;2023-09-18T10:50:08;27.40;99.90
44215;DHT22;29884;47.450;19.124;2023-09-18T10:52:35;27.60;99.00
44215;DHT22;29884;47.450;19.124;2023-09-18T10:55:01;27.70;98.70
44215;DHT22;29884;47.450;19.124;2023-09-18T10:57:36;27.70;98.80
44215;DHT22;29884;47.450;19.124;2023-09-18T11:00:04;27.80;99.20
44215;DHT22;29884;47.450;19.124;2023-09-18T11:02:40;27.80;99.00
44215;DHT22;29884;47.450;19.124;2023-09-18T11:05:06;27.90;97.70
44215;DHT22;29884;47.450;19.124;2023-09-18T11:07:32;27.90;97.50
44215;DHT22;29884;47.450;19.124;2023-09-18T11:09:58;27.90;97.90
44215;DHT22;29884;47.450;19.124;2023-09-18T11:12:43;27.90;97.20
44215;DHT22;29884;47.450;19.124;2023-09-18T11:15:31;27.90;97.70
44215;DHT22;29884;47.450;19.124;2023-09-18T11:18:02;27.80;97.00
44215;DHT22;29884;47.450;19.124;2023-09-18T11:20:31;27.50;97.40
44215;DHT22;29884;47.450;19.124;2023-09-18T11:25:39;27.90;97.20
44215;DHT22;29884;47.450;19.124;2023-09-18T11:28:28;28.20;96.30
44215;DHT22;29884;47.450;19.124;2023-09-18T11:30:58;28.30;95.80
44215;DHT22;29884;47.450;19.124;2023-09-18T11:36:03;28.30;95.70
44215;DHT22;29884;47.450;19.124;2023-09-18T11:38:30;28.40;94.70
44215;DHT22;29884;47.450;19.124;2023-09-18T11:40:56;28.20;94.50
44215;DHT22;29884;47.450;19.124;2023-09-18T11:43:23;28.30;94.50
44215;DHT22;29884;47.450;19.124;2023-09-18T11:45:55;28.40;93.90
44215;DHT22;29884;47.450;19.124;2023-09-18T11:48:26;28.30;93.80
44215;DHT22;29884;47.450;19.124;2023-09-18T11:50:58;28.40;93.90
44215;DHT22;29884;47.450;19.124;2023-09-18T11:53:27;28.30;93.10
44215;DHT22;29884;47.450;19.124;2023-09-18T11:55:53;28.20;92.50
44215;DHT22;29884;47.450;19.124;2023-09-18T11:58:19;28.20;92.20
44215;DHT22;29884;47.450;19.124;2023-09-18T12:00:53;28.10;91.90
44215;DHT22;29884;47.450;19.124;2023-09-18T12:03:21;28.00;92.40
44215;DHT22;29884;47.450;19.124;2023-09-18T12:05:53;27.90;92.70
44215;DHT22;29884;47.450;19.124;2023-09-18T12:08:19;27.90;92.90
44215;DHT22;29884;47.450;19.124;2023-09-18T12:10:51;28.10;93.10
44215;DHT22;29884;47.450;19.124;2023-09-18T12:13:17;27.90;92.40
44215;DHT22;29884;47.450;19.124;2023-09-18T12:15:43;27.80;92.80
44215;DHT22;29884;47.450;19.124;2023-09-18T12:18:10;28.00;92.10
44215;DHT22;29884;47.450;19.124;2023-09-18T12:20:45;28.00;92.70
44215;DHT22;29884;47.450;19.124;2023-09-18T12:23:11;27.90;92.20
44215;DHT22;29884;47.450;19.124;2023-09-18T12:25:38;27.90;91.90
44215;DHT22;29884;47.450;19.124;2023-09-18T12:28:06;27.90;92.60
44215;DHT22;29884;47.450;19.124;2023-09-18T12:30:33;28.10;91.20
44215;DHT22;29884;47.450;19.124;2023-09-18T12:32:59;28.10;91.50
44215;DHT22;29884;47.450;19.124;2023-09-18T12:35:32;28.10;91.20
44215;DHT22;29884;47.450;19.124;2023-09-18T12:37:59;27.80;91.30
44215;DHT22;29884;47.450;19.124;2023-09-18T12:42:51;28.00;91.40
44215;DHT22;29884;47.450;19.124;2023-09-18T12:45:19;28.10;91.20
44215;DHT22;29884;47.450;19.124;2023-09-18T12:47:45;28.20;91.20
44215;DHT22;29884;47.450;19.124;2023-09-18T12:50:14;28.30;91.00
44215;DHT22;29884;47.450;19.124;2023-09-18T12:52:41;28.40;90.70
44215;DHT22;29884;47.450;19.124;2023-09-18T12:55:08;28.30;89.70
44215;DHT22;29884;47.450;19.124;2023-09-18T12:57:33;28.00;90.20
44215;DHT22;29884;47.450;19.124;2023-09-18T12:59:59;27.90;90.40
44215;DHT22;29884;47.450;19.124;2023-09-18T13:02:28;28.00;90.20
44215;DHT22;29884;47.450;19.124;2023-09-18T13:04:55;28.00;89.30
44215;DHT22;29884;47.450;19.124;2023-09-18T13:07:23;28.00;90.00
44215;DHT22;29884;47.450;19.124;2023-09-18T13:10:03;28.10;88.90
44215;DHT22;29884;47.450;19.124;2023-09-18T13:12:47;28.00;88.70
44215;DHT22;29884;47.450;19.124;2023-09-18T13:15:24;27.90;88.90
44215;DHT22;29884;47.450;19.124;2023-09-18T13:17:52;27.90;90.10
44215;DHT22;29884;47.450;19.124;2023-09-18T13:20:21;27.80;89.60
44215;DHT22;29884;47.450;19.124;2023-09-18T13:22:51;27.60;89.00
44215;DHT22;29884;47.450;19.124;2023-09-18T13:27:48;27.80;89.30
44215;DHT22;29884;47.450;19.124;2023-09-18T13:30:14;28.00;88.00
44215;DHT22;29884;47.450;19.124;2023-09-18T13:32:43;28.10;88.30
44215;DHT22;29884;47.450;19.124;2023-09-18T13:35:09;28.10;87.30
44215;DHT22;29884;47.450;19.124;2023-09-18T13:37:37;28.20;87.60
44215;DHT22;29884;47.450;19.124;2023-09-18T13:40:04;28.10;86.70
44215;DHT22;29884;47.450;19.124;2023-09-18T13:42:32;28.10;86.70
44215;DHT22;29884;47.450;19.124;2023-09-18T13:44:59;28.20;86.90
44215;DHT22;29884;47.450;19.124;2023-09-18T13:47:30;28.30;86.10
44215;DHT22;29884;47.450;19.124;2023-09-18T13:49:56;28.40;85.90
44215;DHT22;29884;47.450;19.124;2023-09-18T13:52:24;28.60;86.90
44215;DHT22;29884;47.450;19.124;2023-09-18T13:54:50;28.50;83.00
44215;DHT22;29884;47.450;19.124;2023-09-18T13:57:18;28.40;84.00
44215;DHT22;29884;47.450;19.124;2023-09-18T13:59:45;28.30;84.50
44215;DHT22;29884;47.450;19.124;2023-09-18T14:02:11;28.10;84.70
44215;DHT22;29884;47.450;19.124;2023-09-18T14:04:37;28.10;85.30
44215;DHT22;29884;47.450;19.124;2023-09-18T14:07:06;28.00;85.20
44215;DHT22;29884;47.450;19.124;2023-09-18T14:09:32;28.00;85.00
44215;DHT22;29884;47.450;19.124;2023-09-18T14:11:58;27.90;84.80
44215;DHT22;29884;47.450;19.124;2023-09-18T14:14:23;28.00;84.80
44215;DHT22;29884;47.450;19.124;2023-09-18T14:16:49;27.80;83.90
44215;DHT22;29884;47.450;19.124;2023-09-18T14:19:19;27.80;84.00
44215;DHT22;29884;47.450;19.124;2023-09-18T14:21:45;27.90;84.00
44215;DHT22;29884;47.450;19.124;2023-09-18T14:24:11;28.00;83.80
44215;DHT22;29884;47.450;19.124;2023-09-18T14:26:36;28.10;83.60
44215;DHT22;29884;47.450;19.124;2023-09-18T14:29:09;28.10;84.20
44215;DHT22;29884;47.450;19.124;2023-09-18T14:31:39;28.00;82.80
44215;DHT22;29884;47.450;19.124;2023-09-18T14:34:05;28.00;83.00
44215;DHT22;29884;47.450;19.124;2023-09-18T14:36:34;27.90;82.10
44215;DHT22;29884;47.450;19.124;2023-09-18T14:39:03;27.80;82.70
44215;DHT22;29884;47.450;19.124;2023-09-18T14:41:29;27.70;84.30
44215;DHT22;29884;47.450;19.124;2023-09-18T14:43:57;27.70;83.20
44215;DHT22;29884;47.450;19.124;2023-09-18T14:46:24;27.60;83.40
44215;DHT22;29884;47.450;19.124;2023-09-18T14:48:50;27.60;83.40
44215;DHT22;29884;47.450;19.124;2023-09-18T14:51:16;27.50;84.10
44215;DHT22;29884;47.450;19.124;2023-09-18T14:53:42;27.50;84.70
44215;DHT22;29884;47.450;19.124;2023-09-18T14:56:08;27.40;84.40
44215;DHT22;29884;47.450;19.124;2023-09-18T14:58:34;27.40;84.70
44215;DHT22;29884;47.450;19.124;2023-09-18T15:00:59;27.40;84.80
44215;DHT22;29884;47.450;19.124;2023-09-18T15:03:25;27.30;83.40
44215;DHT22;29884;47.450;19.124;2023-09-18T15:05:52;27.30;84.30
44215;DHT22;29884;47.450;19.124;2023-09-18T15:08:19;27.30;84.70
44215;DHT22;29884;47.450;19.124;2023-09-18T15:10:45;27.40;84.50
44215;DHT22;29884;47.450;19.124;2023-09-18T15:13:11;27.40;85.20
44215;DHT22;29884;47.450;19.124;2023-09-18T15:15:38;27.30;85.50
44215;DHT22;29884;47.450;19.124;2023-09-18T15:18:04;27.30;84.70
44215;DHT22;29884;47.450;19.124;2023-09-18T15:20:30;27.30;83.60
44215;DHT22;29884;47.450;19.124;2023-09-18T15:22:55;27.30;84.80
44215;DHT22;29884;47.450;19.124;2023-09-18T15:25:22;27.30;84.30
44215;DHT22;29884;47.450;19.124;2023-09-18T15:27:48;27.20;83.90
44215;DHT22;29884;47.450;19.124;2023-09-18T15:30:14;27.20;84.40